createdAt,value
2019-05-21T00:01:29.782Z,96903.75
2019-05-21T00:06:36.004Z,96899.91
2019-05-21T00:11:41.243Z,96898.14
2019-05-21T00:16:46.422Z,96905.26
2019-05-21T00:21:51.669Z,96908.93
2019-05-21T00:26:56.954Z,96912.98
2019-05-21T00:32:38.004Z,96906.37
2019-05-21T00:38:18.954Z,96907.41
2019-05-21T00:43:46.422Z,96919.17
2019-05-21T00:48:51.663Z,96926.70
2019-05-21T00:53:57.196Z,96922.67
2019-05-21T00:59:02.432Z,96923.41
2019-05-21T01:04:07.694Z,96919.38
2019-05-21T01:09:12.939Z,96923.66
2019-05-21T01:14:18.183Z,96924.59
2019-05-21T01:19:23.419Z,96930.30
2019-05-21T01:24:28.681Z,96936.02
2019-05-21T01:29:33.902Z,96934.89
2019-05-21T01:34:39.154Z,96932.41
2019-05-21T01:39:44.401Z,96934.27
2019-05-21T01:44:49.632Z,96935.84
2019-05-21T01:49:55.146Z,96933.88
2019-05-21T01:55:00.744Z,96935.95
2019-05-21T02:00:07.247Z,96944.61
2019-05-21T02:05:12.672Z,96943.45
2019-05-21T02:10:18.397Z,96935.88
2019-05-21T02:15:23.639Z,96936.06
2019-05-21T02:20:28.896Z,96937.42
2019-05-21T02:25:34.177Z,96936.37
2019-05-21T02:30:39.430Z,96938.27
2019-05-21T02:35:54.157Z,96943.13
2019-05-21T02:40:51.657Z,96944.61
2019-05-21T02:45:56.901Z,96950.29
2019-05-21T02:51:02.184Z,96948.44
2019-05-21T02:56:07.431Z,96946.66
2019-05-21T03:01:31.546Z,96938.55
2019-05-21T03:06:37.350Z,96936.98
2019-05-21T03:11:42.737Z,96940.52
2019-05-21T03:16:48.485Z,96953.59
2019-05-21T03:21:53.826Z,96954.53
2019-05-21T03:26:59.171Z,96955.77
2019-05-21T03:32:05.005Z,96957.71
2019-05-21T03:37:11.197Z,96951.06
2019-05-21T03:42:16.419Z,96962.78
2019-05-21T03:47:21.894Z,96968.31
2019-05-21T03:52:27.017Z,96971.91
2019-05-21T03:57:32.246Z,96974.73
2019-05-21T04:02:37.326Z,96974.34
2019-05-21T04:07:42.671Z,96969.52
2019-05-21T04:13:06.472Z,96976.48
2019-05-21T04:18:16.805Z,96977.91
2019-05-21T04:23:21.943Z,96978.00
2019-05-21T04:28:27.113Z,96979.16
2019-05-21T04:33:32.338Z,96991.80
2019-05-21T04:38:37.552Z,96987.02
2019-05-21T04:43:42.787Z,96996.45
2019-05-21T04:48:48.105Z,97002.25
2019-05-21T04:53:53.393Z,97012.39
2019-05-21T04:58:58.486Z,97010.04
2019-05-21T05:04:03.676Z,97022.64
2019-05-21T05:09:08.894Z,97021.98
2019-05-21T05:14:14.306Z,97020.75
2019-05-21T05:19:20.568Z,97032.31
2019-05-21T05:24:25.700Z,97038.08
2019-05-21T05:29:31.156Z,97041.01
2019-05-21T05:34:36.621Z,97045.23
2019-05-21T05:39:42.070Z,97057.27
2019-05-21T05:44:47.223Z,97070.34
2019-05-21T05:49:54.120Z,97074.33
2019-05-21T05:54:59.274Z,97073.89
2019-05-21T06:00:05.311Z,97085.37
2019-05-21T06:05:11.536Z,97092.92
2019-05-21T06:10:16.818Z,97092.55
2019-05-21T06:15:22.136Z,97094.84
2019-05-21T06:20:27.459Z,97095.84
2019-05-21T06:25:32.735Z,97099.64
2019-05-21T06:30:38.258Z,97104.97
2019-05-21T06:35:43.404Z,97103.11
2019-05-21T06:40:48.674Z,97113.45
2019-05-21T06:45:54.453Z,97115.81
2019-05-21T06:51:01.415Z,97122.20
2019-05-21T06:56:07.793Z,97135.94
2019-05-21T07:01:13.144Z,97141.54
2019-05-21T07:06:18.373Z,97153.81
2019-05-21T07:11:23.592Z,97157.14
2019-05-21T07:16:29.776Z,97164.14
2019-05-21T07:21:35.968Z,97181.16
2019-05-21T07:26:42.311Z,97193.61
2019-05-21T07:31:47.503Z,97202.27
2019-05-21T07:36:52.728Z,97212.91
2019-05-21T07:41:59.059Z,97211.84
2019-05-21T07:47:04.397Z,97216.30
2019-05-21T07:52:09.633Z,97212.14
2019-05-21T07:57:15.603Z,97221.42
2019-05-21T08:02:20.826Z,97221.84
2019-05-21T08:07:26.280Z,97232.76
2019-05-21T08:12:39.089Z,97237.67
2019-05-21T08:17:38.348Z,97247.38
2019-05-21T08:22:43.924Z,97249.05
2019-05-21T08:27:49.075Z,97259.45
2019-05-21T08:32:54.360Z,97266.02
2019-05-21T08:38:00.230Z,97269.12
2019-05-21T08:43:05.893Z,97275.67
2019-05-21T08:48:11.175Z,97276.06
2019-05-21T08:53:16.380Z,97292.93
2019-05-21T08:58:21.602Z,97287.17
2019-05-21T09:03:27.481Z,97293.03
2019-05-21T09:08:32.699Z,97304.28
2019-05-21T09:13:37.851Z,97302.86
2019-05-21T09:18:43.026Z,97304.41
2019-05-21T09:23:48.281Z,97323.05
2019-05-21T09:28:53.815Z,97324.47
2019-05-21T09:33:58.872Z,97322.23
2019-05-21T09:39:05.268Z,97322.27
2019-05-21T09:44:12.264Z,97329.55
2019-05-21T09:49:17.499Z,97330.98
2019-05-21T09:54:22.722Z,97339.70
2019-05-21T10:00:02.943Z,97339.82
2019-05-21T10:05:09.225Z,97342.22
2019-05-21T10:10:14.881Z,97343.43
2019-05-21T10:15:20.486Z,97346.84
2019-05-21T10:20:25.716Z,97351.73
2019-05-21T10:25:30.970Z,97351.05
2019-05-21T10:30:36.203Z,97347.09
2019-05-21T10:35:42.440Z,97349.49
2019-05-21T10:40:47.777Z,97355.85
2019-05-21T10:45:53.336Z,97359.99
2019-05-21T10:50:58.552Z,97369.18
2019-05-21T10:56:03.823Z,97371.15
2019-05-21T11:01:16.973Z,97369.09
2019-05-21T11:06:22.226Z,97379.04
2019-05-21T11:11:28.825Z,97379.80
2019-05-21T11:16:34.064Z,97379.09
2019-05-21T11:21:39.305Z,97390.94
2019-05-21T11:26:44.560Z,97388.88
2019-05-21T11:31:57.177Z,97392.63
2019-05-21T11:36:57.061Z,97392.38
2019-05-21T11:42:02.681Z,97390.50
2019-05-21T11:47:07.937Z,97398.28
2019-05-21T11:52:13.548Z,97404.67
2019-05-21T11:57:18.777Z,97409.27
2019-05-21T12:02:24.268Z,97414.56
2019-05-21T12:07:29.421Z,97407.78
2019-05-21T12:12:34.984Z,97410.66
2019-05-21T12:22:53.098Z,97414.61
2019-05-21T12:27:58.647Z,97420.30
2019-05-21T12:33:03.872Z,97420.55
2019-05-21T12:38:09.085Z,97420.95
2019-05-21T12:43:14.628Z,97421.94
2019-05-21T12:48:19.779Z,97421.45
2019-05-21T12:53:24.934Z,97433.28
2019-05-21T12:58:30.084Z,97439.20
2019-05-21T13:03:35.225Z,97445.61
2019-05-21T13:08:40.789Z,97439.30
2019-05-21T13:13:46.014Z,97442.11
2019-05-21T13:18:51.460Z,97451.14
2019-05-21T13:23:56.744Z,97450.55
2019-05-21T13:29:02.002Z,97450.91
2019-05-21T13:34:07.425Z,97451.80
2019-05-21T13:39:13.031Z,97457.09
2019-05-21T13:44:18.254Z,97454.98
2019-05-21T13:49:23.490Z,97465.18
2019-05-21T13:54:28.715Z,97469.77
2019-05-21T13:59:34.770Z,97487.52
2019-05-21T14:04:39.989Z,97478.17
2019-05-21T14:09:45.799Z,97471.50
2019-05-21T14:14:51.231Z,97467.23
2019-05-21T14:19:56.488Z,97475.75
2019-05-21T14:25:02.133Z,97480.70
2019-05-21T14:30:09.950Z,97482.41
2019-05-21T14:35:15.282Z,97488.77
2019-05-21T14:40:31.552Z,97486.08
2019-05-21T14:45:33.461Z,97487.02
2019-05-21T14:50:35.781Z,97494.11
2019-05-21T14:55:41.003Z,97486.23
2019-05-21T15:00:46.582Z,97492.60
2019-05-21T15:05:51.833Z,97495.00
2019-05-21T15:10:57.079Z,97495.94
2019-05-21T15:16:02.316Z,97492.23
2019-05-21T15:21:12.707Z,97492.61
2019-05-21T15:26:18.272Z,97495.54
2019-05-21T15:31:24.643Z,97496.91
2019-05-21T15:36:29.914Z,97500.41
2019-05-21T15:41:35.408Z,97501.77
2019-05-21T15:46:48.143Z,97512.83
2019-05-21T15:51:47.657Z,97521.38
2019-05-21T15:56:53.271Z,97535.00
2019-05-21T16:01:58.888Z,97546.02
2019-05-21T16:07:05.173Z,97558.34
2019-05-21T16:12:10.390Z,97559.09
2019-05-21T16:17:15.547Z,97560.35
2019-05-21T16:22:21.036Z,97569.70
2019-05-21T16:27:26.223Z,97574.34
2019-05-21T16:32:32.132Z,97568.80
2019-05-21T16:37:37.356Z,97573.36
2019-05-21T16:42:42.603Z,97580.34
2019-05-21T16:47:48.230Z,97589.47
2019-05-21T16:52:53.701Z,97586.95
2019-05-21T16:57:58.955Z,97597.69
2019-05-21T17:03:04.205Z,97611.55
2019-05-21T17:08:09.446Z,97609.30
2019-05-21T17:13:14.935Z,97620.70
2019-05-21T17:18:21.758Z,97623.79
2019-05-21T17:23:26.984Z,97625.27
2019-05-21T17:28:32.522Z,97621.00
2019-05-21T17:33:38.134Z,97644.84
2019-05-21T17:38:43.379Z,97645.63
2019-05-21T17:43:48.935Z,97658.73
2019-05-21T17:48:54.151Z,97657.97
2019-05-21T17:54:00.918Z,97677.84
2019-05-21T17:59:06.115Z,97700.33
2019-05-21T18:04:13.777Z,97693.70
2019-05-21T18:09:20.517Z,97696.20
2019-05-21T18:14:26.096Z,97699.90
2019-05-21T18:19:31.468Z,97722.87
2019-05-21T18:24:37.325Z,97732.30
2019-05-21T18:29:43.420Z,97745.02
2019-05-21T18:34:48.765Z,97748.70
2019-05-21T18:39:54.297Z,97752.00
2019-05-21T18:44:59.437Z,97764.56
2019-05-21T18:50:05.043Z,97766.63
2019-05-21T18:55:10.769Z,97772.95
2019-05-21T19:00:16.460Z,97779.66
2019-05-21T19:05:21.698Z,97787.09
2019-05-21T19:10:27.065Z,97794.07
2019-05-21T19:15:32.263Z,97796.50
2019-05-21T19:20:37.783Z,97807.41
2019-05-21T19:25:43.026Z,97824.47
2019-05-21T19:30:48.443Z,97831.11
2019-05-21T19:35:53.526Z,97831.86
2019-05-21T19:40:58.681Z,97826.01
2019-05-21T19:46:03.833Z,97833.42
2019-05-21T19:51:09.906Z,97845.47
2019-05-21T19:56:15.972Z,97851.05
2019-05-21T20:01:21.665Z,97860.47
2019-05-21T20:06:27.184Z,97875.47
2019-05-21T20:11:32.715Z,97880.23
2019-05-21T20:16:39.496Z,97897.97
2019-05-21T20:21:45.822Z,97897.20
2019-05-21T20:26:51.563Z,97895.06
2019-05-21T20:31:56.699Z,97896.81
2019-05-21T20:37:03.362Z,97904.77
2019-05-21T20:42:10.171Z,97895.38
2019-05-21T20:47:16.277Z,97907.88
2019-05-21T20:52:22.266Z,97913.13
2019-05-21T20:57:28.799Z,97919.88
2019-05-21T21:02:35.321Z,97926.84
2019-05-21T21:07:41.268Z,97917.78
2019-05-21T21:12:47.083Z,97921.80
2019-05-21T21:17:52.627Z,97910.41
2019-05-21T21:22:57.717Z,97919.70
2019-05-21T21:28:03.079Z,97914.30
2019-05-21T21:33:08.505Z,97926.98
2019-05-21T21:38:17.370Z,97924.78
2019-05-21T21:43:23.176Z,97935.79
2019-05-21T21:48:29.908Z,97926.33
2019-05-21T21:53:36.380Z,97932.10
2019-05-21T21:58:41.741Z,97937.34
2019-05-21T22:03:47.060Z,97938.49
2019-05-21T22:08:52.859Z,97945.25
2019-05-21T22:13:58.314Z,97946.97
2019-05-21T22:19:04.175Z,97946.80
2019-05-21T22:24:09.963Z,97949.96
2019-05-21T22:29:15.792Z,97950.45
2019-05-21T22:34:22.060Z,97948.28
2019-05-21T22:39:30.586Z,97947.62
2019-05-21T22:44:35.792Z,97954.05
2019-05-21T22:49:41.593Z,97953.03
2019-05-21T22:54:47.055Z,97951.55
2019-05-21T22:59:52.212Z,97957.44
2019-05-21T23:04:57.511Z,97955.27
2019-05-21T23:10:04.756Z,97959.84
2019-05-21T23:15:24.548Z,97954.61
2019-05-21T23:20:21.416Z,97960.34
2019-05-21T23:25:28.499Z,97968.98
2019-05-21T23:30:34.475Z,97965.25
2019-05-21T23:35:41.283Z,97968.98
2019-05-21T23:40:48.685Z,97966.97
2019-05-21T23:45:54.375Z,97960.70
2019-05-21T23:50:59.871Z,97960.88
2019-05-21T23:56:05.132Z,97971.02
